Аэропорт: Платов. Ростов-на-Дону

ICAO: URRP

METAR:
2022-06-26 12:00:00
URRP 261200Z 06006MPS 9999 SCT///CB 30/15 Q1011 R05/CLRD70 NOSIG RMK QFE753/1004
METAR:
2022-06-26 10:55:00
TAF URRP 261055Z 2612/2712 06003G10MPS 9999 SCT030CB TX30/2612Z TN18/2702Z TEMPO 2612/2712 10008G14MPS -SHRA SCT016 BKN030CB